Armourdale, North Dakota
Current Conditions -  °F | °C
As of 4:15 AM on Wednesday 26 Nov 2014 (Local Time) from K06D Reporting Station
Overcast Overcast  
Wind Chill: -15°   Ceiling: 4600
Heat Index:   Visibility: 10mi
Dew Point: -4°   Wind: 8mph
Humidity: 85%   Direction: 360°N
Pressure: 30.27"   Gusts: NA
Location:  48.8584°N, 99.1311°W
Report Text: K06D 261015Z AUTO 36007KT 10SM SCT003 SCT010 OVC046 M18/M20 A3027 RMK AO2
Loading
Personal Weather Stations






























Interactive Weather Map New forecast layout! Learn more

10-Day Weather Forecast

Advertisements
Track Severe Weather on mobile